createdAt,value
2019-06-10T00:00:24.998Z,1012.99
2019-06-10T00:01:26.458Z,1012.98
2019-06-10T00:02:27.866Z,1012.99
2019-06-10T00:03:31.535Z,1013.02
2019-06-10T00:04:30.868Z,1013.04
2019-06-10T00:05:32.020Z,1013.04
2019-06-10T00:06:33.437Z,1013.04
2019-06-10T00:07:34.841Z,1013.01
2019-06-10T00:08:36.267Z,1012.95
2019-06-10T00:09:37.671Z,1012.99
2019-06-10T00:10:39.566Z,1013.00
2019-06-10T00:11:41.108Z,1012.93
2019-06-10T00:12:42.378Z,1012.97
2019-06-10T00:13:43.801Z,1012.92
2019-06-10T00:14:45.206Z,1012.93
2019-06-10T00:15:46.599Z,1012.94
2019-06-10T00:16:48.012Z,1012.94
2019-06-10T00:17:59.291Z,1012.93
2019-06-10T00:18:51.061Z,1012.88
2019-06-10T00:19:52.195Z,1012.91
2019-06-10T00:20:53.599Z,1012.89
2019-06-10T00:21:55.020Z,1012.92
2019-06-10T00:22:57.403Z,1012.87
2019-06-10T00:23:57.790Z,1012.84
2019-06-10T00:25:00.132Z,1012.88
2019-06-10T00:26:03.244Z,1012.79
2019-06-10T00:27:02.828Z,1012.81
2019-06-10T00:28:05.390Z,1012.80
2019-06-10T00:29:05.820Z,1012.79
2019-06-10T00:30:06.506Z,1012.73
2019-06-10T00:31:08.626Z,1012.70
2019-06-10T00:32:12.104Z,1012.68
2019-06-10T00:33:12.151Z,1012.66
2019-06-10T00:34:12.353Z,1012.61
2019-06-10T00:35:13.022Z,1012.54
2019-06-10T00:36:14.434Z,1012.57
2019-06-10T00:37:15.834Z,1012.55
2019-06-10T00:38:17.234Z,1012.55
2019-06-10T00:39:18.647Z,1012.49
2019-06-10T00:40:21.487Z,1012.51
2019-06-10T00:41:21.875Z,1012.44
2019-06-10T00:42:22.777Z,1012.41
2019-06-10T00:43:24.197Z,1012.37
2019-06-10T00:44:25.605Z,1012.32
2019-06-10T00:45:27.029Z,1012.36
2019-06-10T00:46:28.499Z,1012.31
2019-06-10T00:47:30.785Z,1012.32
2019-06-10T00:48:32.340Z,1012.36
2019-06-10T00:49:32.700Z,1012.41
2019-06-10T00:50:34.115Z,1012.34
2019-06-10T00:51:35.528Z,1012.33
2019-06-10T00:52:36.922Z,1012.36
2019-06-10T00:53:38.341Z,1012.35
2019-06-10T00:54:41.588Z,1012.29
2019-06-10T00:55:41.755Z,1012.35
2019-06-10T00:56:42.614Z,1012.34
2019-06-10T00:57:44.049Z,1012.31
2019-06-10T00:58:45.455Z,1012.36
2019-06-10T00:59:46.877Z,1012.33
2019-06-10T01:00:48.308Z,1012.32
2019-06-10T01:01:50.929Z,1012.26
2019-06-10T01:02:51.803Z,1012.32
2019-06-10T01:03:52.481Z,1012.32
2019-06-10T01:04:53.891Z,1012.28
2019-06-10T01:05:55.308Z,1012.30
2019-06-10T01:06:56.723Z,1012.25
2019-06-10T01:07:58.152Z,1012.25
2019-06-10T01:09:00.682Z,1012.24
2019-06-10T01:10:01.130Z,1012.22
2019-06-10T01:11:05.622Z,1012.24
2019-06-10T01:12:04.812Z,1012.22
2019-06-10T01:13:05.216Z,1012.18
2019-06-10T01:14:07.334Z,1012.20
2019-06-10T01:15:09.975Z,1012.21
2019-06-10T01:16:12.138Z,1012.24
2019-06-10T01:17:13.733Z,1012.22
2019-06-10T01:18:32.013Z,1012.22
2019-06-10T01:19:15.805Z,1012.22
2019-06-10T01:20:16.182Z,1012.24
2019-06-10T01:21:17.559Z,1012.26
2019-06-10T01:22:21.124Z,1012.23
2019-06-10T01:23:21.802Z,1012.23
2019-06-10T01:24:22.280Z,1012.21
2019-06-10T01:25:23.117Z,1012.24
2019-06-10T01:26:24.553Z,1012.22
2019-06-10T01:27:25.974Z,1012.23
2019-06-10T01:28:27.403Z,1012.17
2019-06-10T01:29:31.293Z,1012.12
2019-06-10T01:30:31.229Z,1012.11
2019-06-10T01:31:32.478Z,1012.07
2019-06-10T01:32:33.885Z,1012.07
2019-06-10T01:33:35.315Z,1012.03
2019-06-10T01:34:36.729Z,1012.10
2019-06-10T01:35:38.147Z,1012.09
2019-06-10T01:36:40.588Z,1012.09
2019-06-10T01:37:41.401Z,1012.07
2019-06-10T01:38:42.381Z,1012.07
2019-06-10T01:39:43.797Z,1012.12
2019-06-10T01:40:45.237Z,1012.04
2019-06-10T01:41:46.651Z,1012.01
2019-06-10T01:42:50.494Z,1012.02
2019-06-10T01:43:51.077Z,1011.97
2019-06-10T01:44:50.839Z,1011.99
2019-06-10T01:45:52.246Z,1011.95
2019-06-10T01:46:53.678Z,1011.92
2019-06-10T01:47:55.108Z,1011.98
2019-06-10T01:48:56.536Z,1011.97
2019-06-10T01:49:57.967Z,1011.99
2019-06-10T01:51:01.329Z,1011.97
2019-06-10T01:52:01.635Z,1011.99
2019-06-10T01:53:02.141Z,1012.01
2019-06-10T01:54:03.551Z,1011.98
2019-06-10T01:55:04.994Z,1011.96
2019-06-10T01:56:07.641Z,1012.00
2019-06-10T01:57:07.805Z,1011.94
2019-06-10T01:58:09.828Z,1011.95
2019-06-10T01:59:12.147Z,1011.92
2019-06-10T02:00:17.028Z,1011.88
2019-06-10T02:01:15.605Z,1011.86
2019-06-10T02:02:16.145Z,1011.82
2019-06-10T02:03:18.151Z,1011.79
2019-06-10T02:04:18.244Z,1011.79
2019-06-10T02:05:19.657Z,1011.77
2019-06-10T02:06:24.495Z,1011.75
2019-06-10T02:07:23.001Z,1011.71
2019-06-10T02:08:22.886Z,1011.68
2019-06-10T02:09:24.289Z,1011.63
2019-06-10T02:10:25.685Z,1011.67
2019-06-10T02:11:27.083Z,1011.59
2019-06-10T02:12:31.325Z,1011.58
2019-06-10T02:13:31.986Z,1011.55
2019-06-10T02:14:31.707Z,1011.53
2019-06-10T02:15:32.636Z,1011.48
2019-06-10T02:16:34.038Z,1011.46
2019-06-10T02:17:35.439Z,1011.38
2019-06-10T02:18:36.839Z,1011.38
2019-06-10T02:19:38.240Z,1011.35
2019-06-10T02:20:41.107Z,1011.32
2019-06-10T02:21:41.715Z,1011.29
2019-06-10T02:22:42.376Z,1011.27
2019-06-10T02:23:43.772Z,1011.22
2019-06-10T02:24:45.189Z,1011.24
2019-06-10T02:25:46.607Z,1011.21
2019-06-10T02:26:48.013Z,1011.21
2019-06-10T02:27:50.771Z,1011.19
2019-06-10T02:28:51.261Z,1011.14
2019-06-10T02:29:52.187Z,1011.17
2019-06-10T02:30:55.790Z,1011.15
2019-06-10T02:31:54.966Z,1011.17
2019-06-10T02:32:56.369Z,1011.14
2019-06-10T02:33:57.779Z,1011.12
2019-06-10T02:35:08.565Z,1011.08
2019-06-10T02:36:03.436Z,1011.12
2019-06-10T02:37:04.807Z,1011.09
2019-06-10T02:38:03.614Z,1011.08
2019-06-10T02:39:04.884Z,1011.06
2019-06-10T02:40:06.169Z,1011.04
2019-06-10T02:41:07.575Z,1011.04
2019-06-10T02:42:09.000Z,1011.04
2019-06-10T02:43:13.508Z,1010.96
2019-06-10T02:44:14.991Z,1010.95
2019-06-10T02:45:15.929Z,1010.87
2019-06-10T02:46:17.372Z,1010.84
2019-06-10T02:47:19.144Z,1010.83
2019-06-10T02:48:21.325Z,1010.79
2019-06-10T02:49:35.105Z,1010.73
2019-06-10T02:50:23.452Z,1010.71
2019-06-10T02:51:24.468Z,1010.65
2019-06-10T02:52:31.478Z,1010.65
2019-06-10T02:53:30.539Z,1010.67
2019-06-10T02:54:31.546Z,1010.66
2019-06-10T02:55:30.805Z,1010.63
2019-06-10T02:56:31.063Z,1010.56
2019-06-10T02:57:35.342Z,1010.54
2019-06-10T02:58:37.611Z,1010.51
2019-06-10T02:59:36.160Z,1010.48
2019-06-10T03:00:42.622Z,1010.49
2019-06-10T03:01:38.191Z,1010.47
2019-06-10T03:02:36.735Z,1010.44
2019-06-10T03:03:44.608Z,1010.46
2019-06-10T03:04:39.095Z,1010.48
2019-06-10T03:05:41.350Z,1010.43
2019-06-10T03:06:44.695Z,1010.39
2019-06-10T03:07:44.382Z,1010.34
2019-06-10T03:08:44.613Z,1010.37
2019-06-10T03:09:46.017Z,1010.37
2019-06-10T03:10:47.434Z,1010.39
2019-06-10T03:11:48.827Z,1010.39
2019-06-10T03:12:52.396Z,1010.42
2019-06-10T03:13:53.132Z,1010.37
2019-06-10T03:14:52.961Z,1010.43
2019-06-10T03:15:54.372Z,1010.43
2019-06-10T03:16:55.772Z,1010.45
2019-06-10T03:17:57.179Z,1010.43
2019-06-10T03:18:58.592Z,1010.43
2019-06-10T03:20:02.130Z,1010.47
2019-06-10T03:21:02.634Z,1010.41
2019-06-10T03:22:02.855Z,1010.39
2019-06-10T03:23:04.098Z,1010.33
2019-06-10T03:24:05.506Z,1010.31
2019-06-10T03:25:06.927Z,1010.36
2019-06-10T03:26:08.325Z,1010.33
2019-06-10T03:27:09.733Z,1010.37
2019-06-10T03:28:12.078Z,1010.43
2019-06-10T03:29:12.922Z,1010.39
2019-06-10T03:30:19.654Z,1010.33
2019-06-10T03:31:15.715Z,1010.30
2019-06-10T03:32:17.666Z,1010.26
2019-06-10T03:33:20.132Z,1010.27
2019-06-10T03:34:21.664Z,1010.18
2019-06-10T03:35:23.792Z,1010.15
2019-06-10T03:36:23.131Z,1010.14
2019-06-10T03:37:25.677Z,1010.16
2019-06-10T03:38:27.012Z,1010.08
2019-06-10T03:39:27.343Z,1010.04
2019-06-10T03:40:27.754Z,1010.04
2019-06-10T03:41:28.901Z,1010.04
2019-06-10T03:42:32.343Z,1010.06
2019-06-10T03:43:32.921Z,1010.06
2019-06-10T03:44:33.144Z,1010.07
2019-06-10T03:45:34.428Z,1010.09
2019-06-10T03:46:35.836Z,1010.04
2019-06-10T03:47:37.238Z,1010.06
2019-06-10T03:48:38.656Z,1010.08
2019-06-10T03:49:51.731Z,1010.12
2019-06-10T03:50:43.016Z,1010.09
2019-06-10T03:51:43.057Z,1010.10
2019-06-10T03:52:44.145Z,1010.11
2019-06-10T03:53:45.546Z,1010.12
2019-06-10T03:54:46.954Z,1010.14
2019-06-10T03:55:48.353Z,1010.19
2019-06-10T03:56:51.963Z,1010.25
2019-06-10T03:57:52.638Z,1010.24
2019-06-10T03:58:52.518Z,1010.29
2019-06-10T03:59:53.920Z,1010.34
2019-06-10T04:00:55.323Z,1010.37
2019-06-10T04:01:56.731Z,1010.38
2019-06-10T04:02:58.131Z,1010.40
2019-06-10T04:03:59.539Z,1010.30
2019-06-10T04:05:02.680Z,1010.28
2019-06-10T04:06:02.608Z,1010.28
2019-06-10T04:07:03.999Z,1010.24
2019-06-10T04:08:05.072Z,1010.28
2019-06-10T04:09:06.465Z,1010.23
2019-06-10T04:10:07.884Z,1010.18
2019-06-10T04:11:09.291Z,1010.17
2019-06-10T04:12:12.468Z,1010.18
2019-06-10T04:13:13.178Z,1010.19
2019-06-10T04:14:13.440Z,1010.23
2019-06-10T04:15:14.850Z,1010.16
2019-06-10T04:16:17.554Z,1010.15
2019-06-10T04:17:17.618Z,1010.14
2019-06-10T04:18:19.730Z,1010.14
2019-06-10T04:19:22.270Z,1010.14
2019-06-10T04:20:24.641Z,1010.13
2019-06-10T04:21:24.297Z,1010.17
2019-06-10T04:22:25.249Z,1010.16
2019-06-10T04:23:26.986Z,1010.18
2019-06-10T04:24:28.592Z,1010.17
2019-06-10T04:25:29.487Z,1010.13
2019-06-10T04:26:32.132Z,1010.13
2019-06-10T04:27:32.815Z,1010.10
2019-06-10T04:28:33.776Z,1010.10
2019-06-10T04:29:34.067Z,1010.11
2019-06-10T04:30:35.477Z,1010.15
2019-06-10T04:31:36.873Z,1010.20
2019-06-10T04:32:38.279Z,1010.16
2019-06-10T04:33:41.948Z,1010.18
2019-06-10T04:34:43.270Z,1010.18
2019-06-10T04:35:42.714Z,1010.21
2019-06-10T04:36:43.784Z,1010.19
2019-06-10T04:37:45.196Z,1010.24
2019-06-10T04:38:46.611Z,1010.22
2019-06-10T04:39:48.012Z,1010.19
2019-06-10T04:40:49.425Z,1010.16
2019-06-10T04:41:52.932Z,1010.17
2019-06-10T04:42:52.509Z,1010.16
2019-06-10T04:43:53.552Z,1010.17
2019-06-10T04:44:54.942Z,1010.14
2019-06-10T04:45:56.342Z,1010.13
2019-06-10T04:46:57.748Z,1010.09
2019-06-10T04:47:59.699Z,1010.08
2019-06-10T04:49:02.834Z,1010.06
2019-06-10T04:50:03.110Z,1010.07
2019-06-10T04:51:03.850Z,1010.02
2019-06-10T04:52:05.262Z,1010.04
2019-06-10T04:53:06.683Z,1009.97
2019-06-10T04:54:08.075Z,1009.97
2019-06-10T04:55:09.481Z,1009.97
2019-06-10T04:56:12.238Z,1009.97
2019-06-10T04:57:12.816Z,1010.01
2019-06-10T04:58:13.651Z,1010.02
2019-06-10T04:59:15.063Z,1010.03
2019-06-10T05:00:16.476Z,1010.08
2019-06-10T05:01:18.867Z,1010.11
2019-06-10T05:02:19.420Z,1010.06
2019-06-10T05:03:21.509Z,1010.08
2019-06-10T05:04:23.638Z,1010.08
2019-06-10T05:05:24.992Z,1010.09
2019-06-10T05:06:26.869Z,1010.12
2019-06-10T05:07:27.951Z,1010.10
2019-06-10T05:08:28.482Z,1010.06
2019-06-10T05:09:29.435Z,1010.01
2019-06-10T05:10:30.281Z,1010.03
2019-06-10T05:11:33.090Z,1010.05
2019-06-10T05:12:33.027Z,1010.09
2019-06-10T05:13:34.439Z,1010.09
2019-06-10T05:14:35.859Z,1010.09
2019-06-10T05:15:37.270Z,1010.11
2019-06-10T05:16:38.676Z,1010.15
2019-06-10T05:17:40.077Z,1010.13
2019-06-10T05:18:42.445Z,1010.14
2019-06-10T05:19:42.967Z,1010.11
2019-06-10T05:20:51.984Z,1010.13
2019-06-10T05:21:45.603Z,1010.07
2019-06-10T05:22:47.007Z,1010.07
2019-06-10T05:23:48.420Z,1010.11
2019-06-10T05:24:49.822Z,1010.10
2019-06-10T05:25:52.625Z,1010.07
2019-06-10T05:26:53.495Z,1009.99
2019-06-10T05:27:55.691Z,1010.03
2019-06-10T05:28:57.098Z,1010.04
2019-06-10T05:29:58.507Z,1010.05
2019-06-10T05:31:02.502Z,1010.03
2019-06-10T05:32:02.508Z,1010.01
2019-06-10T05:33:02.963Z,1010.00
2019-06-10T05:34:04.064Z,1010.00
2019-06-10T05:35:05.464Z,1009.97
2019-06-10T05:36:06.870Z,1009.99
2019-06-10T05:37:08.266Z,1009.96
2019-06-10T05:38:09.674Z,1009.99
2019-06-10T05:39:12.162Z,1009.99
2019-06-10T05:40:12.716Z,1009.92
2019-06-10T05:41:13.822Z,1009.85
2019-06-10T05:42:15.240Z,1009.81
2019-06-10T05:43:16.654Z,1009.75
2019-06-10T05:44:18.078Z,1009.69
2019-06-10T05:45:19.488Z,1009.64
2019-06-10T05:46:23.667Z,1009.58
2019-06-10T05:47:25.007Z,1009.52
2019-06-10T05:48:24.999Z,1009.46
2019-06-10T05:49:25.972Z,1009.45
2019-06-10T05:50:26.784Z,1009.46
2019-06-10T05:51:28.961Z,1009.44
2019-06-10T05:52:29.133Z,1009.40
2019-06-10T05:53:31.526Z,1009.35
2019-06-10T05:54:33.625Z,1009.25
2019-06-10T05:55:35.011Z,1009.27
2019-06-10T05:56:35.652Z,1009.29
2019-06-10T05:57:36.042Z,1009.22
2019-06-10T05:58:37.458Z,1009.22
2019-06-10T05:59:38.883Z,1009.22
2019-06-10T06:00:42.744Z,1009.16
2019-06-10T06:01:43.248Z,1009.12
2019-06-10T06:02:43.767Z,1009.07
2019-06-10T06:03:45.169Z,1009.04
2019-06-10T06:04:46.584Z,1009.07
2019-06-10T06:05:47.986Z,1009.10
2019-06-10T06:06:49.422Z,1009.06
2019-06-10T06:08:04.069Z,1009.06
2019-06-10T06:08:53.457Z,1009.06
2019-06-10T06:09:53.633Z,1009.09
2019-06-10T06:10:55.049Z,1009.05
2019-06-10T06:11:56.464Z,1009.06
2019-06-10T06:12:57.862Z,1009.07
2019-06-10T06:13:59.296Z,1009.09
2019-06-10T06:15:02.442Z,1009.08
2019-06-10T06:16:03.267Z,1009.10
2019-06-10T06:17:03.497Z,1009.12
2019-06-10T06:18:10.154Z,1009.09
2019-06-10T06:19:06.309Z,1009.13
2019-06-10T06:20:07.713Z,1009.12
2019-06-10T06:21:22.393Z,1009.12
2019-06-10T06:22:12.589Z,1009.13
2019-06-10T06:23:12.246Z,1009.15
2019-06-10T06:24:13.268Z,1009.12
2019-06-10T06:25:15.448Z,1009.06
2019-06-10T06:26:16.659Z,1009.08
2019-06-10T06:27:17.417Z,1009.08
2019-06-10T06:28:18.864Z,1009.02
2019-06-10T06:29:22.094Z,1009.00
2019-06-10T06:30:22.668Z,1009.01
2019-06-10T06:31:23.282Z,1009.02
2019-06-10T06:32:24.456Z,1009.00
2019-06-10T06:33:27.268Z,1008.98
2019-06-10T06:34:28.346Z,1009.00
2019-06-10T06:35:28.603Z,1008.94
2019-06-10T06:36:30.625Z,1008.91
2019-06-10T06:37:34.710Z,1008.93
2019-06-10T06:38:35.195Z,1008.99
2019-06-10T06:39:35.059Z,1008.93
2019-06-10T06:40:37.199Z,1008.92
2019-06-10T06:41:37.583Z,1008.94
2019-06-10T06:42:38.311Z,1008.91
2019-06-10T06:43:44.314Z,1008.89
2019-06-10T06:44:43.116Z,1008.88
2019-06-10T06:45:42.672Z,1008.87
2019-06-10T06:46:43.667Z,1008.86
2019-06-10T06:47:45.623Z,1008.85
2019-06-10T06:48:47.046Z,1008.83
2019-06-10T06:49:48.454Z,1008.82
2019-06-10T06:51:01.973Z,1008.79
2019-06-10T06:51:56.119Z,1008.78
2019-06-10T06:53:18.716Z,1008.78
2019-06-10T06:53:56.370Z,1008.78
2019-06-10T06:54:55.357Z,1008.77
2019-06-10T06:55:56.767Z,1008.78
2019-06-10T06:56:58.168Z,1008.73
2019-06-10T06:57:59.579Z,1008.71
2019-06-10T06:59:02.507Z,1008.75
2019-06-10T07:00:29.833Z,1008.76
2019-06-10T07:01:10.076Z,1008.73
2019-06-10T07:02:05.472Z,1008.71
2019-06-10T07:03:07.640Z,1008.70
2019-06-10T07:04:09.046Z,1008.69
2019-06-10T07:05:12.390Z,1008.70
2019-06-10T07:06:13.205Z,1008.69
2019-06-10T07:07:13.295Z,1008.68
2019-06-10T07:08:14.680Z,1008.64
2019-06-10T07:09:16.078Z,1008.62
2019-06-10T07:10:17.506Z,1008.60
2019-06-10T07:11:18.938Z,1008.64
2019-06-10T07:12:20.367Z,1008.62
2019-06-10T07:13:22.180Z,1008.64
2019-06-10T07:14:23.819Z,1008.62
2019-06-10T07:15:24.528Z,1008.61
2019-06-10T07:16:27.340Z,1008.65
2019-06-10T07:17:28.762Z,1008.62
2019-06-10T07:18:32.677Z,1008.60
2019-06-10T07:19:33.969Z,1008.61
2019-06-10T07:20:35.730Z,1008.57
2019-06-10T07:21:40.447Z,1008.58
2019-06-10T07:22:36.998Z,1008.57
2019-06-10T07:23:40.275Z,1008.61
2019-06-10T07:24:40.600Z,1008.57
2019-06-10T07:25:41.316Z,1008.56
2019-06-10T07:26:50.532Z,1008.56
2019-06-10T07:27:46.854Z,1008.56
2019-06-10T07:28:48.160Z,1008.52
2019-06-10T07:29:49.591Z,1008.46
2019-06-10T07:30:52.903Z,1008.50
2019-06-10T07:31:53.580Z,1008.41
2019-06-10T07:32:53.776Z,1008.43
2019-06-10T07:33:55.182Z,1008.39
2019-06-10T07:34:56.576Z,1008.35
2019-06-10T07:35:57.976Z,1008.37
2019-06-10T07:36:59.382Z,1008.43
2019-06-10T07:38:02.813Z,1008.46
2019-06-10T07:39:03.527Z,1008.44
2019-06-10T07:40:03.550Z,1008.42
2019-06-10T07:41:04.939Z,1008.42
2019-06-10T07:42:06.350Z,1008.45
2019-06-10T07:43:07.759Z,1008.49
2019-06-10T07:44:09.157Z,1008.47
2019-06-10T07:45:12.923Z,1008.44
2019-06-10T07:46:13.362Z,1008.47
2019-06-10T07:47:13.313Z,1008.45
2019-06-10T07:48:14.705Z,1008.48
2019-06-10T07:49:16.109Z,1008.45
2019-06-10T07:50:17.533Z,1008.42
2019-06-10T07:51:18.927Z,1008.44
2019-06-10T07:52:23.265Z,1008.37
2019-06-10T07:53:22.248Z,1008.38
2019-06-10T07:54:23.252Z,1008.36
2019-06-10T07:55:24.509Z,1008.32
2019-06-10T07:56:29.742Z,1008.30
2019-06-10T07:57:27.286Z,1008.28
2019-06-10T07:58:28.678Z,1008.24
2019-06-10T07:59:32.145Z,1008.25
2019-06-10T08:00:33.243Z,1008.25
2019-06-10T08:01:33.292Z,1008.22
2019-06-10T08:02:35.534Z,1008.22
2019-06-10T08:03:36.526Z,1008.23
2019-06-10T08:04:38.067Z,1008.22
2019-06-10T08:05:38.332Z,1008.15
2019-06-10T08:06:39.861Z,1008.15
2019-06-10T08:07:44.110Z,1008.20
2019-06-10T08:08:45.518Z,1008.19
2019-06-10T08:09:47.449Z,1008.20
2019-06-10T08:10:48.287Z,1008.24
2019-06-10T08:11:49.513Z,1008.22
2019-06-10T08:12:52.457Z,1008.19
2019-06-10T08:13:53.923Z,1008.12
2019-06-10T08:14:53.702Z,1008.20
2019-06-10T08:15:56.567Z,1008.17
2019-06-10T08:16:57.951Z,1008.20
2019-06-10T08:18:04.089Z,1008.13
2019-06-10T08:19:26.296Z,1008.15
2019-06-10T08:20:05.985Z,1008.14
2019-06-10T08:21:09.073Z,1008.15
2019-06-10T08:22:13.026Z,1008.15
2019-06-10T08:23:14.646Z,1008.16
2019-06-10T08:24:16.064Z,1008.19
2019-06-10T08:25:17.461Z,1008.23
2019-06-10T08:26:18.869Z,1008.24
2019-06-10T08:27:22.558Z,1008.25
2019-06-10T08:28:22.883Z,1008.24
2019-06-10T08:29:23.461Z,1008.25
2019-06-10T08:30:27.462Z,1008.29
2019-06-10T08:31:25.805Z,1008.29
2019-06-10T08:32:27.214Z,1008.26
2019-06-10T08:33:28.619Z,1008.23
2019-06-10T08:34:30.018Z,1008.23
2019-06-10T08:35:39.473Z,1008.24
2019-06-10T08:36:33.306Z,1008.28
2019-06-10T08:37:34.168Z,1008.31
2019-06-10T08:38:36.280Z,1008.27
2019-06-10T08:39:38.147Z,1008.26
2019-06-10T08:40:38.411Z,1008.28
2019-06-10T08:41:40.545Z,1008.27
2019-06-10T08:42:43.619Z,1008.26
2019-06-10T08:43:45.186Z,1008.31
2019-06-10T08:44:45.592Z,1008.27
2019-06-10T08:45:47.073Z,1008.28
2019-06-10T08:46:47.260Z,1008.37
2019-06-10T08:47:49.126Z,1008.38
2019-06-10T08:48:49.638Z,1008.39
2019-06-10T08:49:52.940Z,1008.42
2019-06-10T08:50:53.139Z,1008.44
2019-06-10T08:51:53.774Z,1008.44
2019-06-10T08:53:10.378Z,1008.45
2019-06-10T08:53:56.391Z,1008.45
2019-06-10T08:54:57.800Z,1008.45
2019-06-10T08:55:59.229Z,1008.47
2019-06-10T08:57:03.331Z,1008.46
2019-06-10T08:58:02.801Z,1008.47
2019-06-10T08:59:03.414Z,1008.40
2019-06-10T09:00:11.707Z,1008.33
2019-06-10T09:01:06.198Z,1008.25
2019-06-10T09:02:07.616Z,1008.22
2019-06-10T09:03:09.187Z,1008.20
2019-06-10T09:04:10.424Z,1008.15
2019-06-10T09:05:12.575Z,1008.12
2019-06-10T09:06:13.472Z,1008.17
2019-06-10T09:07:14.562Z,1008.13
2019-06-10T09:08:15.969Z,1008.07
2019-06-10T09:09:17.386Z,1008.06
2019-06-10T09:10:18.819Z,1008.00
2019-06-10T09:11:21.175Z,1007.97
2019-06-10T09:12:31.400Z,1008.03
2019-06-10T09:13:22.977Z,1008.03
2019-06-10T09:14:24.475Z,1008.12
2019-06-10T09:15:25.789Z,1008.22
2019-06-10T09:16:27.223Z,1008.22
2019-06-10T09:17:28.645Z,1008.25
2019-06-10T09:18:30.070Z,1008.24
2019-06-10T09:19:33.258Z,1008.28
2019-06-10T09:20:33.112Z,1008.27
2019-06-10T09:21:34.283Z,1008.23
2019-06-10T09:22:35.702Z,1008.21
2019-06-10T09:23:37.108Z,1008.12
2019-06-10T09:24:38.964Z,1008.08
2019-06-10T09:25:40.765Z,1008.13
2019-06-10T09:26:44.551Z,1008.08
2019-06-10T09:27:45.943Z,1008.10
2019-06-10T09:28:46.216Z,1008.11
2019-06-10T09:29:48.940Z,1008.11
2019-06-10T09:30:50.434Z,1008.12
2019-06-10T09:31:51.135Z,1008.11
2019-06-10T09:32:52.942Z,1008.14
2019-06-10T09:33:54.393Z,1008.10
2019-06-10T09:34:56.677Z,1008.06
2019-06-10T09:35:55.014Z,1008.07
2019-06-10T09:36:56.824Z,1008.12
2019-06-10T09:37:56.731Z,1008.14
2019-06-10T09:38:58.141Z,1008.15
2019-06-10T09:39:59.906Z,1008.09
2019-06-10T09:41:02.941Z,1008.04
2019-06-10T09:42:06.194Z,1007.94
2019-06-10T09:43:03.769Z,1007.89
2019-06-10T09:44:05.282Z,1007.90
2019-06-10T09:45:06.799Z,1007.95
2019-06-10T09:46:08.315Z,1008.03
2019-06-10T09:47:09.781Z,1007.99
2019-06-10T09:48:12.997Z,1008.04
2019-06-10T09:49:12.788Z,1008.04
2019-06-10T09:50:14.037Z,1008.12
2019-06-10T09:51:15.564Z,1008.16
2019-06-10T09:52:17.062Z,1008.18
2019-06-10T09:53:32.080Z,1008.23
2019-06-10T09:54:19.998Z,1008.22
2019-06-10T09:55:23.250Z,1008.20
2019-06-10T09:56:22.983Z,1008.18
2019-06-10T09:57:24.362Z,1008.17
2019-06-10T09:58:25.776Z,1008.23
2019-06-10T09:59:27.308Z,1008.32
2019-06-10T10:00:29.202Z,1008.33
2019-06-10T10:01:32.503Z,1008.33
2019-06-10T10:02:33.178Z,1008.28
2019-06-10T10:03:33.320Z,1008.29
2019-06-10T10:04:37.281Z,1008.30
2019-06-10T10:05:36.011Z,1008.29
2019-06-10T10:06:37.513Z,1008.30
2019-06-10T10:07:38.988Z,1008.26
2019-06-10T10:08:41.357Z,1008.29
2019-06-10T10:09:46.285Z,1008.25
2019-06-10T10:10:47.528Z,1008.19
2019-06-10T10:11:46.212Z,1008.17
2019-06-10T10:12:47.575Z,1008.16
2019-06-10T10:13:49.458Z,1008.16
2019-06-10T10:14:51.394Z,1008.15
2019-06-10T10:15:52.796Z,1008.13
2019-06-10T10:16:58.677Z,1008.14
2019-06-10T10:17:56.274Z,1008.09
2019-06-10T10:19:00.400Z,1008.11
2019-06-10T10:19:57.130Z,1008.07
2019-06-10T10:21:00.325Z,1008.08
2019-06-10T10:21:59.387Z,1008.03
2019-06-10T10:23:02.531Z,1008.09
2019-06-10T10:24:07.962Z,1008.11
2019-06-10T10:25:03.716Z,1008.09
2019-06-10T10:26:05.206Z,1008.10
2019-06-10T10:27:09.377Z,1008.14
2019-06-10T10:28:08.125Z,1008.11
2019-06-10T10:29:09.663Z,1008.08
2019-06-10T10:30:13.388Z,1008.08
2019-06-10T10:31:13.094Z,1008.07
2019-06-10T10:32:13.893Z,1008.07
2019-06-10T10:33:15.357Z,1008.11
2019-06-10T10:34:16.824Z,1008.12
2019-06-10T10:35:18.275Z,1008.11
2019-06-10T10:36:19.669Z,1008.13
2019-06-10T10:37:22.755Z,1008.16
2019-06-10T10:38:22.878Z,1008.17
2019-06-10T10:39:24.610Z,1008.17
2019-06-10T10:40:25.277Z,1008.15
2019-06-10T10:41:26.743Z,1008.16
2019-06-10T10:42:41.613Z,1008.22
2019-06-10T10:43:34.188Z,1008.21
2019-06-10T10:44:30.927Z,1008.21
2019-06-10T10:45:32.352Z,1008.20
2019-06-10T10:46:33.772Z,1008.20
2019-06-10T10:47:35.178Z,1008.19
2019-06-10T10:48:36.594Z,1008.16
2019-06-10T10:49:38.008Z,1008.16
2019-06-10T10:50:39.424Z,1008.19
2019-06-10T10:51:40.840Z,1008.17
2019-06-10T10:52:42.851Z,1008.17
2019-06-10T10:53:46.796Z,1008.16
2019-06-10T10:54:46.482Z,1008.11
2019-06-10T10:55:47.205Z,1008.08
2019-06-10T10:56:49.273Z,1008.05
2019-06-10T10:57:49.444Z,1008.06
2019-06-10T10:58:55.526Z,1008.04
2019-06-10T10:59:53.952Z,1008.05
2019-06-10T11:00:56.528Z,1008.02
2019-06-10T11:01:56.069Z,1008.06
2019-06-10T11:02:57.502Z,1007.99
2019-06-10T11:03:59.226Z,1008.01
2019-06-10T11:05:00.307Z,1008.04
2019-06-10T11:06:02.028Z,1008.02
2019-06-10T11:07:03.237Z,1007.98
2019-06-10T11:08:04.713Z,1007.95
2019-06-10T11:09:06.141Z,1007.86
2019-06-10T11:10:07.596Z,1007.81
2019-06-10T11:11:09.029Z,1007.77
2019-06-10T11:12:10.470Z,1007.71
2019-06-10T11:13:11.881Z,1007.70
2019-06-10T11:14:15.028Z,1007.70
2019-06-10T11:15:14.709Z,1007.72
2019-06-10T11:16:16.148Z,1007.67
2019-06-10T11:17:17.586Z,1007.71
2019-06-10T11:18:19.004Z,1007.72
2019-06-10T11:19:22.108Z,1007.72
2019-06-10T11:20:22.564Z,1007.75
2019-06-10T11:21:23.234Z,1007.81
2019-06-10T11:22:24.666Z,1007.85
2019-06-10T11:23:26.084Z,1007.89
2019-06-10T11:24:36.421Z,1007.92
2019-06-10T11:25:28.917Z,1007.88
2019-06-10T11:26:32.156Z,1007.86
2019-06-10T11:27:33.139Z,1007.84
2019-06-10T11:28:33.190Z,1007.81
2019-06-10T11:29:34.674Z,1007.77
2019-06-10T11:30:36.118Z,1007.75
2019-06-10T11:31:37.615Z,1007.80
2019-06-10T11:32:39.078Z,1007.76
2019-06-10T11:33:43.169Z,1007.77
2019-06-10T11:34:42.911Z,1007.74
2019-06-10T11:35:43.990Z,1007.72
2019-06-10T11:36:46.143Z,1007.69
2019-06-10T11:37:46.866Z,1007.67
2019-06-10T11:38:48.567Z,1007.68
2019-06-10T11:39:50.205Z,1007.69
2019-06-10T11:40:54.356Z,1007.71
2019-06-10T11:41:53.305Z,1007.73
2019-06-10T11:42:56.347Z,1007.72
2019-06-10T11:43:57.697Z,1007.66
2019-06-10T11:44:58.348Z,1007.69
2019-06-10T11:46:02.697Z,1007.68
2019-06-10T11:46:59.741Z,1007.70
2019-06-10T11:48:02.343Z,1007.72
2019-06-10T11:49:03.840Z,1007.71
2019-06-10T11:50:03.610Z,1007.67
2019-06-10T11:51:05.054Z,1007.71
2019-06-10T11:52:06.312Z,1007.67
2019-06-10T11:53:07.780Z,1007.59
2019-06-10T11:54:09.228Z,1007.57
2019-06-10T11:55:16.494Z,1007.64
2019-06-10T11:56:13.148Z,1007.63
2019-06-10T11:57:13.511Z,1007.57
2019-06-10T11:58:14.965Z,1007.51
2019-06-10T11:59:16.397Z,1007.50
2019-06-10T12:00:17.856Z,1007.49
2019-06-10T12:01:19.273Z,1007.51
2019-06-10T12:02:22.785Z,1007.54
2019-06-10T12:03:23.051Z,1007.55
2019-06-10T12:04:23.893Z,1007.55
2019-06-10T12:05:25.727Z,1007.52
2019-06-10T12:06:27.144Z,1007.51
2019-06-10T12:07:28.561Z,1007.51
2019-06-10T12:08:32.691Z,1007.51
2019-06-10T12:09:33.166Z,1007.49
2019-06-10T12:10:33.054Z,1007.52
2019-06-10T12:11:34.452Z,1007.48
2019-06-10T12:12:35.605Z,1007.48
2019-06-10T12:13:37.021Z,1007.43
2019-06-10T12:14:38.432Z,1007.42
2019-06-10T12:16:13.823Z,1007.40
2019-06-10T12:17:50.613Z,1007.37
2019-06-10T12:18:44.227Z,1007.31
2019-06-10T12:19:45.579Z,1007.34
2019-06-10T12:20:47.702Z,1007.32
2019-06-10T12:21:49.704Z,1007.36
2019-06-10T12:22:49.746Z,1007.37
2019-06-10T12:23:55.939Z,1007.36